הכול
Faith Ranch Airport (Carrizo Springs, TX) XA89 מזג אוויר
There is no TAF data available at XA89 or any nearby airports.
There is no METAR data available at XA89. Showing METAR data for KCZT (25 mi צפ'-מז').
Recent CZT METAR history (no data for XA89)
| Date | Time (CDT) | Flight Rules | Wind Dir. | Speed | Type | Height AGL (ft) | Visibility | Temp (°C) | Temp (°F) | Dew Point (°C) | Dew Point (°F) | Rel. Humid. | Pressure | Density Altitude | Remarks |
|---|---|---|---|---|---|---|---|---|---|---|---|---|---|---|---|
| 04-מאי | 04:15 | VFR | 150° | 3 kt | 10 miles | 18° | 64° | 14° | 57° | 77% | 29.97 in Hg | 908 ft | |||
| 04-מאי | 03:55 | VFR | 160° | 9 kt | 10 miles | 18° | 64° | 13° | 55° | 73% | 29.95 in Hg | 928 ft | |||
| 04-מאי | 03:35 | VFR | 160° | 9 kt | 10 miles | 18° | 64° | 13° | 55° | 73% | 29.97 in Hg | 908 ft | |||
| 04-מאי | 03:15 | VFR | 160° | 7 kt | 10 miles | 18° | 64° | 13° | 55° | 73% | 29.98 in Hg | 898 ft | |||
| 04-מאי | 02:55 | VFR | 160° | 7 kt | 10 miles | 18° | 64° | 13° | 55° | 73% | 29.99 in Hg | 888 ft | |||
| 04-מאי | 02:15 | VFR | 160° | 8 kt | 10 miles | 18° | 64° | 13° | 55° | 73% | 30.00 in Hg | 878 ft | |||
| 04-מאי | 01:55 | VFR | 160° | 7 kt | 10 miles | 19° | 66° | 13° | 55° | 68% | 30.02 in Hg | 978 ft | |||
| 04-מאי | 01:35 | VFR | 160° | 9 kt | 10 miles | 19° | 66° | 13° | 55° | 68% | 30.01 in Hg | 988 ft | |||
| 04-מאי | 01:15 | VFR | 160° | 9 kt | 10 miles | 20° | 68° | 13° | 55° | 64% | 30.02 in Hg | 1,098 ft | |||
| 04-מאי | 00:55 | VFR | 160° | 9 kt | 10 miles | 20° | 68° | 13° | 55° | 64% | 30.03 in Hg | 1,088 ft | Wind gusting to 14 KT | ||
| 04-מאי | 00:35 | VFR | 150° | 7 kt | 10 miles | 20° | 68° | 13° | 55° | 64% | 30.03 in Hg | 1,088 ft | |||
| 04-מאי | 00:15 | VFR | 150° | 9 kt | 10 miles | 20° | 68° | 13° | 55° | 64% | 30.03 in Hg | 1,088 ft | |||
| 03-מאי | 23:55 | VFR | 150° | 6 kt | 10 miles | 20° | 68° | 13° | 55° | 64% | 30.03 in Hg | 1,088 ft | |||
| 03-מאי | 23:35 | VFR | 150° | 6 kt | 10 miles | 20° | 68° | 13° | 55° | 64% | 30.03 in Hg | 1,088 ft | |||
| 03-מאי | 23:15 | VFR | 150° | 5 kt | 10 miles | 20° | 68° | 13° | 55° | 64% | 30.03 in Hg | 1,088 ft | |||
| 03-מאי | 22:55 | VFR | 150° | 4 kt | 10 miles | 19° | 66° | 13° | 55° | 68% | 30.02 in Hg | 978 ft | |||
| 03-מאי | 22:35 | VFR | 170° | 3 kt | 10 miles | 19° | 66° | 14° | 57° | 73% | 30.03 in Hg | 968 ft | |||
| 03-מאי | 22:15 | VFR | 160° | 3 kt | 10 miles | 20° | 68° | 14° | 57° | 68% | 30.03 in Hg | 1,088 ft | |||
| 03-מאי | 21:55 | VFR | 160° | 3 kt | 10 miles | 20° | 68° | 13° | 55° | 64% | 30.03 in Hg | 1,088 ft | |||
| 03-מאי | 21:35 | VFR | 140° | 3 kt | 10 miles | 21° | 69° | 13° | 55° | 60% | 30.02 in Hg | 1,218 ft | |||
| 03-מאי | 21:15 | VFR | Calm | 10 miles |
21° | 69° | 12° | 53° | 56% | 30.02 in Hg | 1,218 ft | ||||
| 03-מאי | 20:55 | VFR | 150° | 3 kt | 5 miles |
22° | 71° | 12° | 53° | 53% | 30.01 in Hg | 1,348 ft | Haze | ||
| 03-מאי | 20:35 | VFR | 150° | 4 kt | 10 miles | 23° | 73° | 12° | 53° | 50% | 30.01 in Hg | 1,468 ft | |||
| 03-מאי | 20:15 | VFR | 140° | 4 kt | 10 miles | 24° | 75° | 11° | 51° | 44% | 30.01 in Hg | 1,588 ft |
כניסה לאתר
| אין תמיכה בדפדפן שלך. שדרג את הדפדפן שלך |
